ECAMD LERS-LERS

Flight info

Callsign ECAMD
Flight time 0h 3m
Altitude 2000
Route VFR
Aircraft C172/L-SDE3FGHIRWY/C

Departure

Time 2026-04-28 17:06
Airport Reus Airport (LERS)

Arrival

Time 2026-04-28 17:10
Airport Reus Airport (LERS)
Time Latitude Longitude Altitude Speed Heading
2026-04-28 16:57 41.14383 1.15037 248 ft 0 kts 68°
2026-04-28 17:00 41.14387 1.15044 248 ft 4 kts 40°
2026-04-28 17:00 41.14440 1.15089 250 ft 15 kts 69°
2026-04-28 17:01 41.14485 1.15246 248 ft 11 kts 72°
2026-04-28 17:01 41.14508 1.15321 248 ft 16 kts 69°
2026-04-28 17:01 41.14568 1.15539 249 ft 33 kts 70°
2026-04-28 17:01 41.14658 1.15834 250 ft 34 kts 69°
2026-04-28 17:02 41.14747 1.16139 247 ft 36 kts 69°
2026-04-28 17:02 41.14808 1.16348 245 ft 38 kts 67°
2026-04-28 17:02 41.14946 1.16821 242 ft 42 kts 76°
2026-04-28 17:02 41.15051 1.17190 243 ft 42 kts 64°
2026-04-28 17:03 41.15139 1.17532 239 ft 2 kts 104°
2026-04-28 17:03 41.15115 1.17556 238 ft 7 kts 154°
2026-04-28 17:03 41.15080 1.17574 238 ft 3 kts 158°
2026-04-28 17:04 41.14992 1.17588 237 ft 7 kts 243°
2026-04-28 17:04 41.14991 1.17584 237 ft 0 kts 246°
2026-04-28 17:05 41.14949 1.17455 238 ft 41 kts 249°
2026-04-28 17:05 41.14806 1.16940 295 ft 67 kts 237°
2026-04-28 17:05 41.14616 1.16347 416 ft 75 kts 237°
2026-04-28 17:06 41.14185 1.14901 683 ft 90 kts 242°
2026-04-28 17:06 41.13902 1.14091 728 ft 104 kts 240°
2026-04-28 17:06 41.12648 1.14098 893 ft 101 kts 134°
2026-04-28 17:07 41.12684 1.15051 805 ft 113 kts 64°
2026-04-28 17:07 41.13014 1.15919 1021 ft 99 kts 62°
2026-04-28 17:07 41.13333 1.16749 1103 ft 101 kts 67°
2026-04-28 17:07 41.13628 1.17467 1459 ft 76 kts 52°
2026-04-28 17:08 41.13996 1.18081 1440 ft 99 kts 53°
2026-04-28 17:08 41.14446 1.18830 1293 ft 97 kts 60°
2026-04-28 17:08 41.14968 1.19290 875 ft 117 kts 336°
2026-04-28 17:08 41.15641 1.18867 797 ft 94 kts 339°
2026-04-28 17:09 41.16201 1.18922 700 ft 92 kts 56°
2026-04-28 17:09 41.16135 1.19544 655 ft 86 kts 160°
2026-04-28 17:09 41.15620 1.19208 712 ft 70 kts 214°
2026-04-28 17:09 41.15313 1.18660 551 ft 87 kts 242°
2026-04-28 17:10 41.15100 1.17957 260 ft 76 kts 246°
2026-04-28 17:10 41.14955 1.17444 238 ft 46 kts 246°
2026-04-28 17:10 41.14793 1.17359 236 ft 6 kts 166°